sensor_id;sensor_type;location;lat;lon;timestamp;pressure;altitude;pressure_sealevel;temperature;humidity
43281;BME280;62175;49.416;8.690;2022-07-23T00:01:08;100324.31;;;26.57;51.93
43281;BME280;62175;49.416;8.690;2022-07-23T00:03:36;100327.25;;;26.61;51.70
43281;BME280;62175;49.416;8.690;2022-07-23T00:06:03;100320.99;;;26.82;51.49
43281;BME280;62175;49.416;8.690;2022-07-23T00:08:30;100318.27;;;26.81;51.48
43281;BME280;62175;49.416;8.690;2022-07-23T00:10:58;100316.46;;;26.85;51.58
43281;BME280;62175;49.416;8.690;2022-07-23T00:13:25;100315.36;;;26.63;51.39
43281;BME280;62175;49.416;8.690;2022-07-23T00:15:53;100312.23;;;26.45;51.71
43281;BME280;62175;49.416;8.690;2022-07-23T00:18:20;100312.56;;;26.49;51.87
43281;BME280;62175;49.416;8.690;2022-07-23T00:20:48;100315.86;;;26.58;51.88
43281;BME280;62175;49.416;8.690;2022-07-23T00:23:16;100319.56;;;26.64;50.91
43281;BME280;62175;49.416;8.690;2022-07-23T00:25:44;100320.52;;;26.64;51.64
43281;BME280;62175;49.416;8.690;2022-07-23T00:28:12;100321.17;;;26.57;52.04
43281;BME280;62175;49.416;8.690;2022-07-23T00:30:39;100325.85;;;26.57;52.40
43281;BME280;62175;49.416;8.690;2022-07-23T00:33:07;100331.98;;;26.26;51.85
43281;BME280;62175;49.416;8.690;2022-07-23T00:35:37;100344.00;;;26.51;51.81
43281;BME280;62175;49.416;8.690;2022-07-23T00:38:05;100357.02;;;26.53;51.19
43281;BME280;62175;49.416;8.690;2022-07-23T00:40:34;100372.72;;;26.51;51.23
43281;BME280;62175;49.416;8.690;2022-07-23T00:43:02;100373.91;;;26.57;51.16
43281;BME280;62175;49.416;8.690;2022-07-23T00:45:31;100376.27;;;26.50;51.63
43281;BME280;62175;49.416;8.690;2022-07-23T00:47:59;100379.22;;;26.55;51.24
43281;BME280;62175;49.416;8.690;2022-07-23T00:50:29;100381.96;;;26.08;50.39
43281;BME280;62175;49.416;8.690;2022-07-23T00:52:57;100373.01;;;26.08;49.46
43281;BME280;62175;49.416;8.690;2022-07-23T00:55:25;100367.35;;;26.29;49.68
43281;BME280;62175;49.416;8.690;2022-07-23T00:57:53;100362.73;;;26.78;50.97
43281;BME280;62175;49.416;8.690;2022-07-23T01:00:26;100353.24;;;26.18;51.12
43281;BME280;62175;49.416;8.690;2022-07-23T01:02:54;100345.05;;;26.14;49.35
43281;BME280;62175;49.416;8.690;2022-07-23T01:05:21;100343.04;;;26.15;49.57
43281;BME280;62175;49.416;8.690;2022-07-23T01:07:50;100346.92;;;26.25;49.56
43281;BME280;62175;49.416;8.690;2022-07-23T01:10:17;100349.78;;;26.32;50.05
43281;BME280;62175;49.416;8.690;2022-07-23T01:12:45;100352.13;;;26.36;49.28
43281;BME280;62175;49.416;8.690;2022-07-23T01:15:12;100361.66;;;25.85;49.08
43281;BME280;62175;49.416;8.690;2022-07-23T01:17:39;100372.63;;;25.85;48.72
43281;BME280;62175;49.416;8.690;2022-07-23T01:20:08;100377.73;;;26.04;48.62
43281;BME280;62175;49.416;8.690;2022-07-23T01:22:35;100364.93;;;26.07;48.98
43281;BME280;62175;49.416;8.690;2022-07-23T01:25:03;100350.18;;;25.85;49.78
43281;BME280;62175;49.416;8.690;2022-07-23T01:27:31;100344.77;;;25.92;50.74
43281;BME280;62175;49.416;8.690;2022-07-23T01:30:00;100351.69;;;26.30;49.24
43281;BME280;62175;49.416;8.690;2022-07-23T01:32:28;100351.02;;;26.22;48.88
43281;BME280;62175;49.416;8.690;2022-07-23T01:34:55;100351.00;;;25.95;48.87
43281;BME280;62175;49.416;8.690;2022-07-23T01:37:23;100352.27;;;25.97;49.96
43281;BME280;62175;49.416;8.690;2022-07-23T01:39:52;100344.77;;;26.16;50.54
43281;BME280;62175;49.416;8.690;2022-07-23T01:42:20;100346.35;;;26.18;50.12
43281;BME280;62175;49.416;8.690;2022-07-23T01:44:50;100350.97;;;26.07;48.88
43281;BME280;62175;49.416;8.690;2022-07-23T01:47:18;100360.08;;;26.19;49.43
43281;BME280;62175;49.416;8.690;2022-07-23T01:49:46;100359.83;;;26.22;48.68
43281;BME280;62175;49.416;8.690;2022-07-23T01:52:15;100355.28;;;26.22;49.36
43281;BME280;62175;49.416;8.690;2022-07-23T01:54:43;100351.46;;;26.24;50.20
43281;BME280;62175;49.416;8.690;2022-07-23T01:57:12;100352.61;;;26.20;49.75
43281;BME280;62175;49.416;8.690;2022-07-23T01:59:39;100351.01;;;25.76;50.12
43281;BME280;62175;49.416;8.690;2022-07-23T02:02:05;100352.43;;;26.22;50.39
43281;BME280;62175;49.416;8.690;2022-07-23T02:04:33;100351.85;;;26.00;49.34
43281;BME280;62175;49.416;8.690;2022-07-23T02:07:00;100345.30;;;25.97;50.73
43281;BME280;62175;49.416;8.690;2022-07-23T02:09:27;100338.71;;;25.96;48.69
43281;BME280;62175;49.416;8.690;2022-07-23T02:11:54;100332.21;;;26.05;50.72
43281;BME280;62175;49.416;8.690;2022-07-23T02:14:21;100328.79;;;26.12;49.87
43281;BME280;62175;49.416;8.690;2022-07-23T02:16:49;100331.33;;;26.15;49.57
43281;BME280;62175;49.416;8.690;2022-07-23T02:19:16;100341.61;;;26.01;49.46
43281;BME280;62175;49.416;8.690;2022-07-23T02:21:43;100343.47;;;26.08;51.15
43281;BME280;62175;49.416;8.690;2022-07-23T02:24:10;100349.03;;;25.53;50.13
43281;BME280;62175;49.416;8.690;2022-07-23T02:26:37;100341.38;;;25.90;51.00
43281;BME280;62175;49.416;8.690;2022-07-23T02:29:05;100342.42;;;25.33;50.61
43281;BME280;62175;49.416;8.690;2022-07-23T02:31:33;100354.21;;;25.71;50.72
43281;BME280;62175;49.416;8.690;2022-07-23T02:34:00;100366.50;;;25.93;50.25
43281;BME280;62175;49.416;8.690;2022-07-23T02:36:28;100368.17;;;25.47;49.85
43281;BME280;62175;49.416;8.690;2022-07-23T02:38:56;100368.55;;;25.27;51.26
43281;BME280;62175;49.416;8.690;2022-07-23T02:41:24;100377.50;;;25.65;50.98
43281;BME280;62175;49.416;8.690;2022-07-23T02:43:51;100373.00;;;25.40;51.04
43281;BME280;62175;49.416;8.690;2022-07-23T02:46:19;100379.92;;;25.37;50.41
43281;BME280;62175;49.416;8.690;2022-07-23T02:48:46;100375.29;;;25.62;51.32
43281;BME280;62175;49.416;8.690;2022-07-23T02:51:13;100381.74;;;25.45;51.02
43281;BME280;62175;49.416;8.690;2022-07-23T02:53:40;100371.26;;;25.47;50.62
43281;BME280;62175;49.416;8.690;2022-07-23T02:56:08;100370.15;;;25.70;50.11
43281;BME280;62175;49.416;8.690;2022-07-23T02:58:36;100379.61;;;25.66;50.78
43281;BME280;62175;49.416;8.690;2022-07-23T03:01:03;100384.62;;;25.63;50.99
43281;BME280;62175;49.416;8.690;2022-07-23T03:03:32;100393.86;;;25.72;51.68
43281;BME280;62175;49.416;8.690;2022-07-23T03:06:00;100411.10;;;25.83;51.54
43281;BME280;62175;49.416;8.690;2022-07-23T03:08:27;100417.94;;;25.79;51.82
43281;BME280;62175;49.416;8.690;2022-07-23T03:10:55;100423.76;;;25.64;51.95
43281;BME280;62175;49.416;8.690;2022-07-23T03:13:22;100411.43;;;25.79;51.57
43281;BME280;62175;49.416;8.690;2022-07-23T03:15:50;100413.22;;;25.50;51.30
43281;BME280;62175;49.416;8.690;2022-07-23T03:18:17;100424.31;;;25.90;51.25
43281;BME280;62175;49.416;8.690;2022-07-23T03:20:45;100422.37;;;25.84;50.42
43281;BME280;62175;49.416;8.690;2022-07-23T03:23:14;100421.59;;;25.83;51.24
43281;BME280;62175;49.416;8.690;2022-07-23T03:25:42;100438.35;;;25.65;51.05
43281;BME280;62175;49.416;8.690;2022-07-23T03:28:09;100435.14;;;25.45;50.95
43281;BME280;62175;49.416;8.690;2022-07-23T03:30:36;100438.49;;;25.81;51.14
43281;BME280;62175;49.416;8.690;2022-07-23T03:33:03;100446.88;;;25.16;50.39
43281;BME280;62175;49.416;8.690;2022-07-23T03:35:30;100441.81;;;25.77;51.55
43281;BME280;62175;49.416;8.690;2022-07-23T03:37:58;100444.49;;;25.61;50.04
43281;BME280;62175;49.416;8.690;2022-07-23T03:40:25;100446.73;;;25.57;50.68
43281;BME280;62175;49.416;8.690;2022-07-23T03:42:53;100444.49;;;25.84;50.65
43281;BME280;62175;49.416;8.690;2022-07-23T03:45:20;100443.46;;;25.24;52.37
43281;BME280;62175;49.416;8.690;2022-07-23T03:47:48;100436.04;;;25.45;52.13
43281;BME280;62175;49.416;8.690;2022-07-23T03:50:15;100431.76;;;25.47;52.06
43281;BME280;62175;49.416;8.690;2022-07-23T03:52:43;100427.55;;;25.28;51.54
43281;BME280;62175;49.416;8.690;2022-07-23T03:55:11;100426.16;;;25.37;51.92
43281;BME280;62175;49.416;8.690;2022-07-23T03:57:38;100426.42;;;25.72;51.67
43281;BME280;62175;49.416;8.690;2022-07-23T04:00:07;100422.04;;;25.50;51.89
43281;BME280;62175;49.416;8.690;2022-07-23T04:02:35;100408.85;;;25.40;51.76
43281;BME280;62175;49.416;8.690;2022-07-23T04:05:03;100402.96;;;25.53;52.37
43281;BME280;62175;49.416;8.690;2022-07-23T04:07:32;100407.21;;;25.42;50.87
43281;BME280;62175;49.416;8.690;2022-07-23T04:09:59;100420.96;;;25.71;51.91
43281;BME280;62175;49.416;8.690;2022-07-23T04:12:26;100441.92;;;25.19;52.00
43281;BME280;62175;49.416;8.690;2022-07-23T04:14:53;100457.26;;;25.33;52.04
43281;BME280;62175;49.416;8.690;2022-07-23T04:17:19;100475.36;;;25.22;52.63
43281;BME280;62175;49.416;8.690;2022-07-23T04:19:46;100486.52;;;25.18;52.51
43281;BME280;62175;49.416;8.690;2022-07-23T04:22:13;100501.74;;;24.96;52.35
43281;BME280;62175;49.416;8.690;2022-07-23T04:24:40;100527.52;;;25.00;52.25
43281;BME280;62175;49.416;8.690;2022-07-23T04:27:07;100516.23;;;24.96;52.84
43281;BME280;62175;49.416;8.690;2022-07-23T04:29:34;100496.91;;;25.17;53.83
43281;BME280;62175;49.416;8.690;2022-07-23T04:32:02;100485.56;;;25.05;54.21
43281;BME280;62175;49.416;8.690;2022-07-23T04:34:29;100469.10;;;25.28;54.51
43281;BME280;62175;49.416;8.690;2022-07-23T04:36:57;100491.47;;;25.18;54.89
43281;BME280;62175;49.416;8.690;2022-07-23T04:39:25;100514.26;;;25.43;55.35
43281;BME280;62175;49.416;8.690;2022-07-23T04:41:52;100511.82;;;25.25;55.29
43281;BME280;62175;49.416;8.690;2022-07-23T04:44:19;100493.81;;;25.31;55.86
43281;BME280;62175;49.416;8.690;2022-07-23T04:46:47;100506.76;;;25.33;55.64
43281;BME280;62175;49.416;8.690;2022-07-23T04:49:15;100513.51;;;25.19;55.77
43281;BME280;62175;49.416;8.690;2022-07-23T04:51:42;100505.24;;;24.97;55.61
43281;BME280;62175;49.416;8.690;2022-07-23T04:54:10;100508.44;;;25.13;55.72
43281;BME280;62175;49.416;8.690;2022-07-23T04:56:37;100521.36;;;24.88;55.39
43281;BME280;62175;49.416;8.690;2022-07-23T04:59:04;100526.44;;;24.70;55.05
43281;BME280;62175;49.416;8.690;2022-07-23T05:01:31;100528.10;;;24.56;55.19
43281;BME280;62175;49.416;8.690;2022-07-23T05:03:58;100541.43;;;24.71;54.92
43281;BME280;62175;49.416;8.690;2022-07-23T05:06:25;100543.13;;;24.70;55.23
43281;BME280;62175;49.416;8.690;2022-07-23T05:08:54;100555.40;;;25.20;55.41
43281;BME280;62175;49.416;8.690;2022-07-23T05:11:21;100565.13;;;25.18;55.77
43281;BME280;62175;49.416;8.690;2022-07-23T05:13:49;100564.07;;;24.60;55.96
43281;BME280;62175;49.416;8.690;2022-07-23T05:16:16;100572.84;;;24.55;55.38
43281;BME280;62175;49.416;8.690;2022-07-23T05:18:42;100560.20;;;24.60;55.74
43281;BME280;62175;49.416;8.690;2022-07-23T05:21:09;100548.76;;;25.26;55.56
43281;BME280;62175;49.416;8.690;2022-07-23T05:23:36;100551.22;;;24.92;56.02
43281;BME280;62175;49.416;8.690;2022-07-23T05:26:03;100549.50;;;24.67;55.57
43281;BME280;62175;49.416;8.690;2022-07-23T05:28:30;100554.95;;;24.88;57.88
43281;BME280;62175;49.416;8.690;2022-07-23T05:30:57;100555.03;;;24.78;56.10
43281;BME280;62175;49.416;8.690;2022-07-23T05:33:24;100545.92;;;24.66;56.22
43281;BME280;62175;49.416;8.690;2022-07-23T05:35:52;100549.89;;;25.07;56.04
43281;BME280;62175;49.416;8.690;2022-07-23T05:38:18;100547.14;;;24.64;56.42
43281;BME280;62175;49.416;8.690;2022-07-23T05:40:46;100547.95;;;24.93;57.14
43281;BME280;62175;49.416;8.690;2022-07-23T05:43:13;100547.23;;;24.87;57.44
43281;BME280;62175;49.416;8.690;2022-07-23T05:45:41;100535.83;;;24.64;57.83
43281;BME280;62175;49.416;8.690;2022-07-23T05:48:08;100523.30;;;24.44;58.27
43281;BME280;62175;49.416;8.690;2022-07-23T05:50:35;100516.15;;;24.75;58.76
43281;BME280;62175;49.416;8.690;2022-07-23T05:53:02;100518.48;;;24.79;59.02
43281;BME280;62175;49.416;8.690;2022-07-23T05:55:30;100510.15;;;24.65;58.75
43281;BME280;62175;49.416;8.690;2022-07-23T05:57:57;100499.21;;;24.87;58.89
43281;BME280;62175;49.416;8.690;2022-07-23T06:00:24;100499.69;;;25.19;58.55
43281;BME280;62175;49.416;8.690;2022-07-23T06:02:52;100503.26;;;24.67;58.68
43281;BME280;62175;49.416;8.690;2022-07-23T06:05:19;100515.46;;;25.06;58.48
43281;BME280;62175;49.416;8.690;2022-07-23T06:07:46;100511.24;;;25.06;58.33
43281;BME280;62175;49.416;8.690;2022-07-23T06:10:14;100512.16;;;24.77;58.40
43281;BME280;62175;49.416;8.690;2022-07-23T06:12:41;100521.08;;;25.19;58.24
43281;BME280;62175;49.416;8.690;2022-07-23T06:15:09;100528.35;;;25.42;57.99
43281;BME280;62175;49.416;8.690;2022-07-23T06:17:37;100541.04;;;25.07;58.31
43281;BME280;62175;49.416;8.690;2022-07-23T06:20:05;100548.39;;;25.26;57.85
43281;BME280;62175;49.416;8.690;2022-07-23T06:22:32;100557.97;;;24.92;56.94
43281;BME280;62175;49.416;8.690;2022-07-23T06:24:58;100559.25;;;24.94;57.49
43281;BME280;62175;49.416;8.690;2022-07-23T06:27:25;100566.30;;;24.96;58.41
43281;BME280;62175;49.416;8.690;2022-07-23T06:29:53;100566.96;;;24.71;58.68
43281;BME280;62175;49.416;8.690;2022-07-23T06:32:20;100564.13;;;25.13;58.32
43281;BME280;62175;49.416;8.690;2022-07-23T06:34:48;100565.19;;;24.81;58.94
43281;BME280;62175;49.416;8.690;2022-07-23T06:37:15;100568.31;;;24.90;59.34
43281;BME280;62175;49.416;8.690;2022-07-23T06:39:43;100573.16;;;24.49;59.07
43281;BME280;62175;49.416;8.690;2022-07-23T06:42:10;100585.17;;;24.07;60.23
43281;BME280;62175;49.416;8.690;2022-07-23T06:44:37;100599.04;;;24.61;59.41
43281;BME280;62175;49.416;8.690;2022-07-23T06:47:04;100608.44;;;24.36;60.18
43281;BME280;62175;49.416;8.690;2022-07-23T06:49:32;100602.34;;;24.59;58.76
43281;BME280;62175;49.416;8.690;2022-07-23T06:51:59;100598.73;;;24.46;58.97
43281;BME280;62175;49.416;8.690;2022-07-23T06:54:27;100592.54;;;24.48;59.25
43281;BME280;62175;49.416;8.690;2022-07-23T06:56:55;100585.81;;;24.68;59.15
43281;BME280;62175;49.416;8.690;2022-07-23T06:59:22;100577.77;;;24.40;59.40
43281;BME280;62175;49.416;8.690;2022-07-23T07:01:50;100571.91;;;24.28;58.94
43281;BME280;62175;49.416;8.690;2022-07-23T07:04:18;100570.75;;;24.45;59.24
43281;BME280;62175;49.416;8.690;2022-07-23T07:06:45;100579.52;;;24.85;59.38
43281;BME280;62175;49.416;8.690;2022-07-23T07:09:12;100598.02;;;24.71;60.70
43281;BME280;62175;49.416;8.690;2022-07-23T07:11:41;100612.07;;;24.36;59.05
43281;BME280;62175;49.416;8.690;2022-07-23T07:14:08;100616.97;;;24.20;59.47
43281;BME280;62175;49.416;8.690;2022-07-23T07:16:35;100615.52;;;24.67;59.42
43281;BME280;62175;49.416;8.690;2022-07-23T07:19:02;100606.10;;;24.82;59.41
43281;BME280;62175;49.416;8.690;2022-07-23T07:21:29;100600.84;;;25.06;58.97
43281;BME280;62175;49.416;8.690;2022-07-23T07:23:57;100605.97;;;24.81;58.42
43281;BME280;62175;49.416;8.690;2022-07-23T07:26:24;100610.33;;;25.06;57.59
43281;BME280;62175;49.416;8.690;2022-07-23T07:28:52;100614.77;;;24.75;58.84
43281;BME280;62175;49.416;8.690;2022-07-23T07:31:19;100626.23;;;24.95;58.52
43281;BME280;62175;49.416;8.690;2022-07-23T07:33:46;100625.92;;;25.08;57.92
43281;BME280;62175;49.416;8.690;2022-07-23T07:36:13;100625.14;;;25.07;58.02
43281;BME280;62175;49.416;8.690;2022-07-23T07:38:42;100629.33;;;24.15;58.21
43281;BME280;62175;49.416;8.690;2022-07-23T07:41:10;100630.24;;;24.21;57.78
43281;BME280;62175;49.416;8.690;2022-07-23T07:43:37;100636.90;;;24.64;57.89
43281;BME280;62175;49.416;8.690;2022-07-23T07:46:05;100637.07;;;24.79;57.64
43281;BME280;62175;49.416;8.690;2022-07-23T07:48:33;100635.69;;;24.69;57.46
43281;BME280;62175;49.416;8.690;2022-07-23T07:50:59;100638.35;;;25.06;57.71
43281;BME280;62175;49.416;8.690;2022-07-23T07:53:27;100642.92;;;24.95;56.77
43281;BME280;62175;49.416;8.690;2022-07-23T07:55:54;100653.10;;;25.15;57.62
43281;BME280;62175;49.416;8.690;2022-07-23T07:58:24;100659.36;;;25.12;56.40
43281;BME280;62175;49.416;8.690;2022-07-23T08:00:52;100657.01;;;24.99;56.79
43281;BME280;62175;49.416;8.690;2022-07-23T08:03:19;100657.73;;;25.19;56.71
43281;BME280;62175;49.416;8.690;2022-07-23T08:05:46;100652.57;;;25.14;56.45
43281;BME280;62175;49.416;8.690;2022-07-23T08:08:14;100641.54;;;25.09;56.42
43281;BME280;62175;49.416;8.690;2022-07-23T08:10:42;100641.25;;;25.14;56.76
43281;BME280;62175;49.416;8.690;2022-07-23T08:13:13;100642.30;;;25.30;56.07
43281;BME280;62175;49.416;8.690;2022-07-23T08:15:43;100650.84;;;25.43;55.88
43281;BME280;62175;49.416;8.690;2022-07-23T08:18:11;100655.47;;;25.31;56.10
43281;BME280;62175;49.416;8.690;2022-07-23T08:20:38;100658.53;;;25.38;55.85
43281;BME280;62175;49.416;8.690;2022-07-23T08:23:07;100658.50;;;25.23;55.54
43281;BME280;62175;49.416;8.690;2022-07-23T08:25:37;100662.99;;;25.36;55.54
43281;BME280;62175;49.416;8.690;2022-07-23T08:28:06;100663.07;;;25.41;56.49
43281;BME280;62175;49.416;8.690;2022-07-23T08:30:35;100660.32;;;25.51;55.91
43281;BME280;62175;49.416;8.690;2022-07-23T08:33:04;100665.91;;;25.24;55.73
43281;BME280;62175;49.416;8.690;2022-07-23T08:35:33;100667.91;;;25.24;55.78
43281;BME280;62175;49.416;8.690;2022-07-23T08:38:03;100670.95;;;25.30;55.68
43281;BME280;62175;49.416;8.690;2022-07-23T08:40:32;100675.55;;;25.30;55.54
43281;BME280;62175;49.416;8.690;2022-07-23T08:43:03;100673.51;;;25.44;54.94
43281;BME280;62175;49.416;8.690;2022-07-23T08:45:36;100677.85;;;25.72;55.59
43281;BME280;62175;49.416;8.690;2022-07-23T08:48:06;100670.72;;;25.45;55.54
43281;BME280;62175;49.416;8.690;2022-07-23T08:50:38;100670.20;;;25.26;55.37
43281;BME280;62175;49.416;8.690;2022-07-23T08:53:10;100671.80;;;25.33;55.44
43281;BME280;62175;49.416;8.690;2022-07-23T08:55:37;100675.31;;;25.52;56.17
43281;BME280;62175;49.416;8.690;2022-07-23T08:58:05;100674.00;;;25.30;54.03
43281;BME280;62175;49.416;8.690;2022-07-23T09:00:33;100670.01;;;24.99;54.94
43281;BME280;62175;49.416;8.690;2022-07-23T09:03:01;100669.42;;;25.42;53.07
43281;BME280;62175;49.416;8.690;2022-07-23T09:05:28;100661.82;;;25.35;54.10
43281;BME280;62175;49.416;8.690;2022-07-23T09:08:10;100665.45;;;25.52;54.41
43281;BME280;62175;49.416;8.690;2022-07-23T09:10:49;100667.92;;;25.09;53.81
43281;BME280;62175;49.416;8.690;2022-07-23T09:13:26;100667.88;;;25.63;55.12
43281;BME280;62175;49.416;8.690;2022-07-23T09:15:55;100666.72;;;25.50;53.44
43281;BME280;62175;49.416;8.690;2022-07-23T09:18:32;100667.55;;;25.68;53.57
43281;BME280;62175;49.416;8.690;2022-07-23T09:21:19;100666.01;;;25.43;53.23
43281;BME280;62175;49.416;8.690;2022-07-23T09:23:50;100663.42;;;24.83;54.14
43281;BME280;62175;49.416;8.690;2022-07-23T09:26:21;100666.14;;;25.32;53.19
43281;BME280;62175;49.416;8.690;2022-07-23T09:28:53;100667.86;;;25.42;54.40
43281;BME280;62175;49.416;8.690;2022-07-23T09:31:21;100667.39;;;25.47;53.52
43281;BME280;62175;49.416;8.690;2022-07-23T09:33:51;100668.52;;;25.43;52.96
43281;BME280;62175;49.416;8.690;2022-07-23T09:36:28;100670.13;;;25.30;53.78
43281;BME280;62175;49.416;8.690;2022-07-23T09:38:56;100671.33;;;25.35;53.70
43281;BME280;62175;49.416;8.690;2022-07-23T09:41:24;100671.78;;;25.72;52.95
43281;BME280;62175;49.416;8.690;2022-07-23T09:44:08;100667.06;;;25.83;52.98
43281;BME280;62175;49.416;8.690;2022-07-23T09:46:35;100673.85;;;25.28;53.37
43281;BME280;62175;49.416;8.690;2022-07-23T09:49:14;100673.08;;;25.50;53.22
43281;BME280;62175;49.416;8.690;2022-07-23T09:51:49;100669.64;;;25.60;53.41
43281;BME280;62175;49.416;8.690;2022-07-23T09:54:28;100673.99;;;25.54;53.97
43281;BME280;62175;49.416;8.690;2022-07-23T09:56:57;100670.95;;;25.74;53.30
43281;BME280;62175;49.416;8.690;2022-07-23T09:59:27;100666.32;;;25.79;52.53
43281;BME280;62175;49.416;8.690;2022-07-23T10:01:57;100670.41;;;26.11;52.89
43281;BME280;62175;49.416;8.690;2022-07-23T10:04:35;100668.33;;;25.72;52.58
43281;BME280;62175;49.416;8.690;2022-07-23T10:07:19;100667.37;;;26.01;52.74
43281;BME280;62175;49.416;8.690;2022-07-23T10:09:49;100661.98;;;25.30;51.97
43281;BME280;62175;49.416;8.690;2022-07-23T10:12:17;100657.09;;;25.82;52.38
43281;BME280;62175;49.416;8.690;2022-07-23T10:14:46;100662.57;;;25.80;51.93
43281;BME280;62175;49.416;8.690;2022-07-23T10:17:17;100662.53;;;25.81;52.58
43281;BME280;62175;49.416;8.690;2022-07-23T10:19:58;100666.77;;;25.57;52.00
43281;BME280;62175;49.416;8.690;2022-07-23T10:22:31;100670.54;;;25.68;53.35
43281;BME280;62175;49.416;8.690;2022-07-23T10:26:48;100659.15;;;25.87;51.98
43281;BME280;62175;49.416;8.690;2022-07-23T10:32:46;100652.71;;;25.84;53.20
43281;BME280;62175;49.416;8.690;2022-07-23T10:36:32;100652.51;;;26.19;51.57
43281;BME280;62175;49.416;8.690;2022-07-23T10:39:13;100649.89;;;25.46;52.46
43281;BME280;62175;49.416;8.690;2022-07-23T10:45:45;100647.80;;;26.08;53.32
43281;BME280;62175;49.416;8.690;2022-07-23T10:48:15;100647.68;;;25.76;53.10
43281;BME280;62175;49.416;8.690;2022-07-23T10:51:06;100648.04;;;25.83;51.98
43281;BME280;62175;49.416;8.690;2022-07-23T10:53:54;100646.51;;;26.10;51.89
43281;BME280;62175;49.416;8.690;2022-07-23T10:57:28;100649.06;;;26.00;51.84
43281;BME280;62175;49.416;8.690;2022-07-23T11:00:28;100650.28;;;26.30;52.05
43281;BME280;62175;49.416;8.690;2022-07-23T11:02:56;100645.13;;;26.01;52.25
43281;BME280;62175;49.416;8.690;2022-07-23T11:05:26;100646.55;;;26.25;51.41
43281;BME280;62175;49.416;8.690;2022-07-23T11:08:16;100650.42;;;26.27;50.61
43281;BME280;62175;49.416;8.690;2022-07-23T11:10:47;100651.30;;;26.10;51.04
43281;BME280;62175;49.416;8.690;2022-07-23T11:13:38;100646.87;;;26.06;50.70
43281;BME280;62175;49.416;8.690;2022-07-23T11:16:12;100646.27;;;26.06;51.58
43281;BME280;62175;49.416;8.690;2022-07-23T11:18:58;100650.39;;;26.71;52.27
43281;BME280;62175;49.416;8.690;2022-07-23T11:21:47;100650.53;;;26.83;51.60
43281;BME280;62175;49.416;8.690;2022-07-23T11:24:17;100649.18;;;26.69;50.54
43281;BME280;62175;49.416;8.690;2022-07-23T11:26:47;100649.54;;;26.62;50.64
43281;BME280;62175;49.416;8.690;2022-07-23T11:29:49;100640.43;;;26.78;50.04
43281;BME280;62175;49.416;8.690;2022-07-23T11:32:27;100641.13;;;26.81;49.86
43281;BME280;62175;49.416;8.690;2022-07-23T11:34:56;100641.55;;;27.22;50.20
43281;BME280;62175;49.416;8.690;2022-07-23T11:37:40;100639.59;;;26.99;49.84
43281;BME280;62175;49.416;8.690;2022-07-23T11:40:11;100638.54;;;27.19;50.14
43281;BME280;62175;49.416;8.690;2022-07-23T11:42:52;100638.94;;;27.10;49.88
43281;BME280;62175;49.416;8.690;2022-07-23T11:45:43;100634.55;;;27.05;50.23
43281;BME280;62175;49.416;8.690;2022-07-23T11:48:18;100629.42;;;26.98;49.39
43281;BME280;62175;49.416;8.690;2022-07-23T11:50:47;100625.54;;;27.05;50.02
43281;BME280;62175;49.416;8.690;2022-07-23T11:53:22;100623.43;;;27.46;50.54
43281;BME280;62175;49.416;8.690;2022-07-23T11:55:51;100619.37;;;27.28;51.17
43281;BME280;62175;49.416;8.690;2022-07-23T11:58:19;100627.12;;;27.22;51.90
43281;BME280;62175;49.416;8.690;2022-07-23T12:00:49;100624.88;;;26.85;48.87
43281;BME280;62175;49.416;8.690;2022-07-23T12:03:17;100619.60;;;27.22;49.30
43281;BME280;62175;49.416;8.690;2022-07-23T12:05:45;100615.75;;;27.04;49.31
43281;BME280;62175;49.416;8.690;2022-07-23T12:08:13;100611.13;;;27.12;49.56
43281;BME280;62175;49.416;8.690;2022-07-23T12:10:43;100607.09;;;26.71;50.17
43281;BME280;62175;49.416;8.690;2022-07-23T12:13:12;100601.77;;;26.64;51.21
43281;BME280;62175;49.416;8.690;2022-07-23T12:15:43;100603.40;;;26.75;51.72
43281;BME280;62175;49.416;8.690;2022-07-23T12:18:12;100599.34;;;27.01;50.88
43281;BME280;62175;49.416;8.690;2022-07-23T12:31:28;100589.35;;;26.90;53.50
43281;BME280;62175;49.416;8.690;2022-07-23T12:33:55;100592.48;;;26.35;51.46
43281;BME280;62175;49.416;8.690;2022-07-23T12:36:37;100600.03;;;26.94;51.14
43281;BME280;62175;49.416;8.690;2022-07-23T12:39:04;100593.66;;;26.61;50.11
43281;BME280;62175;49.416;8.690;2022-07-23T12:41:50;100590.34;;;27.05;48.66
43281;BME280;62175;49.416;8.690;2022-07-23T12:44:18;100589.72;;;26.87;48.90
43281;BME280;62175;49.416;8.690;2022-07-23T12:46:50;100593.96;;;27.09;49.79
43281;BME280;62175;49.416;8.690;2022-07-23T12:49:26;100592.54;;;26.95;49.04
43281;BME280;62175;49.416;8.690;2022-07-23T12:54:37;100599.53;;;27.36;48.47
43281;BME280;62175;49.416;8.690;2022-07-23T12:57:16;100593.15;;;26.82;48.47
43281;BME280;62175;49.416;8.690;2022-07-23T13:04:54;100630.05;;;27.24;50.76
43281;BME280;62175;49.416;8.690;2022-07-23T13:07:22;100628.03;;;26.33;54.75
43281;BME280;62175;49.416;8.690;2022-07-23T13:09:51;100620.54;;;26.43;57.89
43281;BME280;62175;49.416;8.690;2022-07-23T13:12:19;100624.49;;;26.46;58.68
43281;BME280;62175;49.416;8.690;2022-07-23T13:14:48;100632.56;;;26.51;57.80
43281;BME280;62175;49.416;8.690;2022-07-23T13:17:15;100633.55;;;26.19;60.20
43281;BME280;62175;49.416;8.690;2022-07-23T13:19:44;100630.51;;;26.42;59.77
43281;BME280;62175;49.416;8.690;2022-07-23T13:22:11;100627.34;;;26.66;60.03
43281;BME280;62175;49.416;8.690;2022-07-23T13:24:39;100623.57;;;26.57;60.67
43281;BME280;62175;49.416;8.690;2022-07-23T13:27:07;100626.58;;;26.37;61.11
43281;BME280;62175;49.416;8.690;2022-07-23T13:29:34;100626.79;;;26.63;60.74
43281;BME280;62175;49.416;8.690;2022-07-23T13:32:04;100622.31;;;26.69;60.64